sensor_id;sensor_type;location;lat;lon;timestamp;P1;durP1;ratioP1;P2;durP2;ratioP2
84729;SDS011;74950;56.832;41.398;2024-01-11T00:00:15;5.13;;;3.20;;
84729;SDS011;74950;56.832;41.398;2024-01-11T00:02:42;4.53;;;2.78;;
84729;SDS011;74950;56.832;41.398;2024-01-11T00:05:08;3.50;;;1.90;;
84729;SDS011;74950;56.832;41.398;2024-01-11T00:07:35;9.68;;;4.35;;
84729;SDS011;74950;56.832;41.398;2024-01-11T00:10:01;5.22;;;2.33;;
84729;SDS011;74950;56.832;41.398;2024-01-11T00:12:29;6.28;;;3.70;;
84729;SDS011;74950;56.832;41.398;2024-01-11T00:14:55;7.80;;;3.65;;
84729;SDS011;74950;56.832;41.398;2024-01-11T00:17:21;6.10;;;3.15;;
84729;SDS011;74950;56.832;41.398;2024-01-11T00:19:47;8.38;;;4.20;;
84729;SDS011;74950;56.832;41.398;2024-01-11T00:22:14;7.38;;;4.38;;
84729;SDS011;74950;56.832;41.398;2024-01-11T00:24:40;5.15;;;2.85;;
84729;SDS011;74950;56.832;41.398;2024-01-11T00:27:07;5.25;;;3.60;;
84729;SDS011;74950;56.832;41.398;2024-01-11T00:29:33;6.88;;;4.45;;
84729;SDS011;74950;56.832;41.398;2024-01-11T00:32:01;11.45;;;5.32;;
84729;SDS011;74950;56.832;41.398;2024-01-11T00:34:27;7.78;;;4.43;;
84729;SDS011;74950;56.832;41.398;2024-01-11T00:36:53;8.68;;;4.53;;
84729;SDS011;74950;56.832;41.398;2024-01-11T00:39:19;8.00;;;4.50;;
84729;SDS011;74950;56.832;41.398;2024-01-11T00:41:46;15.57;;;6.30;;
84729;SDS011;74950;56.832;41.398;2024-01-11T00:44:12;26.42;;;11.52;;
84729;SDS011;74950;56.832;41.398;2024-01-11T00:46:56;9.07;;;5.30;;
84729;SDS011;74950;56.832;41.398;2024-01-11T00:49:23;17.30;;;8.88;;
84729;SDS011;74950;56.832;41.398;2024-01-11T00:51:49;10.25;;;6.07;;
84729;SDS011;74950;56.832;41.398;2024-01-11T00:54:15;11.57;;;6.65;;
84729;SDS011;74950;56.832;41.398;2024-01-11T00:56:41;10.55;;;5.72;;
84729;SDS011;74950;56.832;41.398;2024-01-11T00:59:07;13.23;;;6.00;;
84729;SDS011;74950;56.832;41.398;2024-01-11T01:01:33;7.35;;;4.22;;
84729;SDS011;74950;56.832;41.398;2024-01-11T01:03:59;12.65;;;5.55;;
84729;SDS011;74950;56.832;41.398;2024-01-11T01:06:25;14.13;;;5.95;;
84729;SDS011;74950;56.832;41.398;2024-01-11T01:08:51;10.23;;;5.90;;
84729;SDS011;74950;56.832;41.398;2024-01-11T01:11:18;14.90;;;6.95;;
84729;SDS011;74950;56.832;41.398;2024-01-11T01:13:44;7.72;;;2.97;;
84729;SDS011;74950;56.832;41.398;2024-01-11T01:16:10;12.25;;;5.10;;
84729;SDS011;74950;56.832;41.398;2024-01-11T01:18:37;8.93;;;4.68;;
84729;SDS011;74950;56.832;41.398;2024-01-11T01:21:04;8.70;;;4.78;;
84729;SDS011;74950;56.832;41.398;2024-01-11T01:23:32;9.27;;;4.20;;
84729;SDS011;74950;56.832;41.398;2024-01-11T01:25:59;6.43;;;3.70;;
84729;SDS011;74950;56.832;41.398;2024-01-11T01:28:25;11.40;;;4.88;;
84729;SDS011;74950;56.832;41.398;2024-01-11T01:30:51;7.20;;;3.78;;
84729;SDS011;74950;56.832;41.398;2024-01-11T01:33:17;4.00;;;2.03;;
84729;SDS011;74950;56.832;41.398;2024-01-11T01:35:44;10.15;;;3.42;;
84729;SDS011;74950;56.832;41.398;2024-01-11T01:38:12;3.55;;;2.63;;
84729;SDS011;74950;56.832;41.398;2024-01-11T01:40:38;7.50;;;3.78;;
84729;SDS011;74950;56.832;41.398;2024-01-11T01:43:08;5.60;;;2.72;;
84729;SDS011;74950;56.832;41.398;2024-01-11T01:45:35;7.05;;;2.38;;
84729;SDS011;74950;56.832;41.398;2024-01-11T01:48:01;6.13;;;3.60;;
84729;SDS011;74950;56.832;41.398;2024-01-11T01:50:28;7.53;;;3.60;;
84729;SDS011;74950;56.832;41.398;2024-01-11T01:52:54;6.35;;;4.00;;
84729;SDS011;74950;56.832;41.398;2024-01-11T01:55:21;8.48;;;3.38;;
84729;SDS011;74950;56.832;41.398;2024-01-11T01:57:48;3.28;;;1.90;;
84729;SDS011;74950;56.832;41.398;2024-01-11T02:00:15;6.13;;;3.53;;
84729;SDS011;74950;56.832;41.398;2024-01-11T02:02:43;5.47;;;2.67;;
84729;SDS011;74950;56.832;41.398;2024-01-11T02:05:13;5.32;;;3.38;;
84729;SDS011;74950;56.832;41.398;2024-01-11T02:07:40;5.88;;;3.22;;
84729;SDS011;74950;56.832;41.398;2024-01-11T02:10:06;4.15;;;2.38;;
84729;SDS011;74950;56.832;41.398;2024-01-11T02:12:34;4.50;;;2.28;;
84729;SDS011;74950;56.832;41.398;2024-01-11T02:15:01;3.85;;;2.05;;
84729;SDS011;74950;56.832;41.398;2024-01-11T02:17:30;6.03;;;2.38;;
84729;SDS011;74950;56.832;41.398;2024-01-11T02:20:16;3.67;;;2.25;;
84729;SDS011;74950;56.832;41.398;2024-01-11T02:22:43;7.65;;;2.38;;
84729;SDS011;74950;56.832;41.398;2024-01-11T02:25:14;3.78;;;2.38;;
84729;SDS011;74950;56.832;41.398;2024-01-11T02:27:49;5.13;;;2.83;;
84729;SDS011;74950;56.832;41.398;2024-01-11T02:30:16;6.85;;;2.33;;
84729;SDS011;74950;56.832;41.398;2024-01-11T02:32:43;3.90;;;2.05;;
84729;SDS011;74950;56.832;41.398;2024-01-11T02:35:15;4.65;;;2.22;;
84729;SDS011;74950;56.832;41.398;2024-01-11T02:37:41;3.00;;;1.45;;
84729;SDS011;74950;56.832;41.398;2024-01-11T02:40:08;4.57;;;1.83;;
84729;SDS011;74950;56.832;41.398;2024-01-11T02:42:34;3.95;;;2.00;;
84729;SDS011;74950;56.832;41.398;2024-01-11T02:45:04;2.30;;;1.73;;
84729;SDS011;74950;56.832;41.398;2024-01-11T02:47:31;4.72;;;2.28;;
84729;SDS011;74950;56.832;41.398;2024-01-11T02:49:57;3.63;;;1.92;;
84729;SDS011;74950;56.832;41.398;2024-01-11T02:52:23;3.20;;;2.08;;
84729;SDS011;74950;56.832;41.398;2024-01-11T02:54:49;4.55;;;1.98;;
84729;SDS011;74950;56.832;41.398;2024-01-11T02:57:16;4.43;;;2.08;;
84729;SDS011;74950;56.832;41.398;2024-01-11T02:59:42;3.08;;;2.67;;
84729;SDS011;74950;56.832;41.398;2024-01-11T03:02:09;7.32;;;3.13;;
84729;SDS011;74950;56.832;41.398;2024-01-11T03:04:35;5.47;;;3.33;;
84729;SDS011;74950;56.832;41.398;2024-01-11T03:07:01;3.45;;;2.28;;
84729;SDS011;74950;56.832;41.398;2024-01-11T03:09:27;4.82;;;2.95;;
84729;SDS011;74950;56.832;41.398;2024-01-11T03:11:53;4.22;;;2.80;;
84729;SDS011;74950;56.832;41.398;2024-01-11T03:14:19;3.85;;;2.30;;
84729;SDS011;74950;56.832;41.398;2024-01-11T03:16:45;2.15;;;1.38;;
84729;SDS011;74950;56.832;41.398;2024-01-11T03:19:12;2.28;;;1.23;;
84729;SDS011;74950;56.832;41.398;2024-01-11T03:21:42;3.55;;;1.90;;
84729;SDS011;74950;56.832;41.398;2024-01-11T03:24:09;3.17;;;1.27;;
84729;SDS011;74950;56.832;41.398;2024-01-11T03:26:35;2.13;;;1.30;;
84729;SDS011;74950;56.832;41.398;2024-01-11T03:29:01;2.75;;;1.23;;
84729;SDS011;74950;56.832;41.398;2024-01-11T03:31:27;1.02;;;0.93;;
84729;SDS011;74950;56.832;41.398;2024-01-11T03:33:53;1.63;;;1.40;;
84729;SDS011;74950;56.832;41.398;2024-01-11T03:36:22;2.88;;;1.88;;
84729;SDS011;74950;56.832;41.398;2024-01-11T03:41:15;3.85;;;2.33;;
84729;SDS011;74950;56.832;41.398;2024-01-11T03:43:41;2.45;;;1.27;;
84729;SDS011;74950;56.832;41.398;2024-01-11T03:46:07;3.58;;;2.17;;
84729;SDS011;74950;56.832;41.398;2024-01-11T03:48:33;1.42;;;0.90;;
84729;SDS011;74950;56.832;41.398;2024-01-11T03:51:01;5.18;;;1.33;;
84729;SDS011;74950;56.832;41.398;2024-01-11T03:53:28;3.90;;;1.45;;
84729;SDS011;74950;56.832;41.398;2024-01-11T03:55:54;3.15;;;1.67;;
84729;SDS011;74950;56.832;41.398;2024-01-11T03:58:20;6.53;;;1.52;;
84729;SDS011;74950;56.832;41.398;2024-01-11T04:00:46;1.42;;;1.10;;
84729;SDS011;74950;56.832;41.398;2024-01-11T04:03:12;2.95;;;1.67;;
84729;SDS011;74950;56.832;41.398;2024-01-11T04:05:41;2.70;;;1.08;;
84729;SDS011;74950;56.832;41.398;2024-01-11T04:08:07;1.95;;;1.80;;
84729;SDS011;74950;56.832;41.398;2024-01-11T04:10:34;5.75;;;2.63;;
84729;SDS011;74950;56.832;41.398;2024-01-11T04:13:00;5.72;;;3.78;;
84729;SDS011;74950;56.832;41.398;2024-01-11T04:15:26;5.70;;;3.33;;
84729;SDS011;74950;56.832;41.398;2024-01-11T04:17:52;6.30;;;2.13;;
84729;SDS011;74950;56.832;41.398;2024-01-11T04:20:18;6.38;;;2.22;;
84729;SDS011;74950;56.832;41.398;2024-01-11T04:22:44;4.32;;;2.40;;
84729;SDS011;74950;56.832;41.398;2024-01-11T04:25:10;6.15;;;3.08;;
84729;SDS011;74950;56.832;41.398;2024-01-11T04:27:55;3.47;;;1.58;;
84729;SDS011;74950;56.832;41.398;2024-01-11T04:30:21;5.45;;;2.67;;
84729;SDS011;74950;56.832;41.398;2024-01-11T04:32:48;5.15;;;2.25;;
84729;SDS011;74950;56.832;41.398;2024-01-11T04:35:14;2.28;;;1.48;;
84729;SDS011;74950;56.832;41.398;2024-01-11T04:37:40;4.75;;;2.97;;
84729;SDS011;74950;56.832;41.398;2024-01-11T04:40:09;4.45;;;2.45;;
84729;SDS011;74950;56.832;41.398;2024-01-11T04:42:35;3.15;;;1.90;;
84729;SDS011;74950;56.832;41.398;2024-01-11T04:45:01;3.17;;;1.73;;
84729;SDS011;74950;56.832;41.398;2024-01-11T04:47:29;4.45;;;2.72;;
84729;SDS011;74950;56.832;41.398;2024-01-11T04:49:55;4.50;;;3.05;;
84729;SDS011;74950;56.832;41.398;2024-01-11T04:52:22;1.73;;;0.85;;
84729;SDS011;74950;56.832;41.398;2024-01-11T04:54:48;2.63;;;1.67;;
84729;SDS011;74950;56.832;41.398;2024-01-11T04:57:14;1.73;;;1.60;;
84729;SDS011;74950;56.832;41.398;2024-01-11T04:59:40;4.75;;;2.40;;
84729;SDS011;74950;56.832;41.398;2024-01-11T05:02:06;0.98;;;0.85;;
84729;SDS011;74950;56.832;41.398;2024-01-11T05:04:32;4.63;;;2.42;;
84729;SDS011;74950;56.832;41.398;2024-01-11T05:06:59;5.63;;;3.20;;
84729;SDS011;74950;56.832;41.398;2024-01-11T05:09:26;1.55;;;1.45;;
84729;SDS011;74950;56.832;41.398;2024-01-11T05:11:52;1.95;;;1.30;;
84729;SDS011;74950;56.832;41.398;2024-01-11T05:14:18;1.30;;;1.13;;
84729;SDS011;74950;56.832;41.398;2024-01-11T05:16:44;2.85;;;1.38;;
84729;SDS011;74950;56.832;41.398;2024-01-11T05:19:11;3.80;;;2.40;;
84729;SDS011;74950;56.832;41.398;2024-01-11T05:21:37;2.17;;;1.63;;
84729;SDS011;74950;56.832;41.398;2024-01-11T05:24:03;5.75;;;2.90;;
84729;SDS011;74950;56.832;41.398;2024-01-11T05:26:29;2.08;;;1.17;;
84729;SDS011;74950;56.832;41.398;2024-01-11T05:28:55;2.15;;;0.85;;
84729;SDS011;74950;56.832;41.398;2024-01-11T05:31:21;2.00;;;1.33;;
84729;SDS011;74950;56.832;41.398;2024-01-11T05:34:06;2.22;;;1.90;;
84729;SDS011;74950;56.832;41.398;2024-01-11T05:36:34;1.48;;;0.80;;
84729;SDS011;74950;56.832;41.398;2024-01-11T05:39:00;7.00;;;3.35;;
84729;SDS011;74950;56.832;41.398;2024-01-11T05:41:45;8.10;;;4.25;;
84729;SDS011;74950;56.832;41.398;2024-01-11T05:44:11;11.27;;;4.70;;
84729;SDS011;74950;56.832;41.398;2024-01-11T05:46:37;2.85;;;2.28;;
84729;SDS011;74950;56.832;41.398;2024-01-11T05:49:03;3.03;;;1.25;;
84729;SDS011;74950;56.832;41.398;2024-01-11T05:51:29;3.20;;;1.67;;
84729;SDS011;74950;56.832;41.398;2024-01-11T05:53:55;3.47;;;1.92;;
84729;SDS011;74950;56.832;41.398;2024-01-11T05:56:21;5.20;;;2.72;;
84729;SDS011;74950;56.832;41.398;2024-01-11T05:58:48;4.57;;;2.13;;
84729;SDS011;74950;56.832;41.398;2024-01-11T06:01:14;1.48;;;1.25;;
84729;SDS011;74950;56.832;41.398;2024-01-11T06:03:40;1.83;;;0.98;;
84729;SDS011;74950;56.832;41.398;2024-01-11T06:06:06;1.95;;;0.95;;
84729;SDS011;74950;56.832;41.398;2024-01-11T06:08:33;3.50;;;1.95;;
84729;SDS011;74950;56.832;41.398;2024-01-11T06:10:59;2.83;;;1.33;;
84729;SDS011;74950;56.832;41.398;2024-01-11T06:13:26;1.20;;;0.82;;
84729;SDS011;74950;56.832;41.398;2024-01-11T06:15:52;1.20;;;1.10;;
84729;SDS011;74950;56.832;41.398;2024-01-11T06:18:18;2.65;;;1.55;;
84729;SDS011;74950;56.832;41.398;2024-01-11T06:20:44;3.03;;;1.42;;
84729;SDS011;74950;56.832;41.398;2024-01-11T06:23:10;1.88;;;1.20;;
84729;SDS011;74950;56.832;41.398;2024-01-11T06:25:37;0.75;;;0.40;;
84729;SDS011;74950;56.832;41.398;2024-01-11T06:28:04;2.58;;;1.98;;
84729;SDS011;74950;56.832;41.398;2024-01-11T06:30:32;1.98;;;1.40;;
84729;SDS011;74950;56.832;41.398;2024-01-11T06:32:58;1.75;;;1.55;;
84729;SDS011;74950;56.832;41.398;2024-01-11T06:35:24;7.80;;;4.55;;
84729;SDS011;74950;56.832;41.398;2024-01-11T06:37:50;5.07;;;3.13;;
84729;SDS011;74950;56.832;41.398;2024-01-11T06:40:16;5.50;;;3.35;;
84729;SDS011;74950;56.832;41.398;2024-01-11T06:42:45;9.80;;;4.57;;
84729;SDS011;74950;56.832;41.398;2024-01-11T06:45:11;7.97;;;3.83;;
84729;SDS011;74950;56.832;41.398;2024-01-11T06:47:37;6.05;;;3.58;;
84729;SDS011;74950;56.832;41.398;2024-01-11T06:50:06;9.57;;;4.22;;
84729;SDS011;74950;56.832;41.398;2024-01-11T06:52:34;9.30;;;4.72;;
84729;SDS011;74950;56.832;41.398;2024-01-11T06:55:00;11.18;;;4.65;;
84729;SDS011;74950;56.832;41.398;2024-01-11T06:57:27;7.60;;;4.65;;
84729;SDS011;74950;56.832;41.398;2024-01-11T06:59:53;13.15;;;5.20;;
84729;SDS011;74950;56.832;41.398;2024-01-11T07:02:19;12.48;;;4.72;;
84729;SDS011;74950;56.832;41.398;2024-01-11T07:04:46;8.88;;;5.40;;
84729;SDS011;74950;56.832;41.398;2024-01-11T07:07:30;11.35;;;5.28;;
84729;SDS011;74950;56.832;41.398;2024-01-11T07:09:56;8.75;;;3.42;;
84729;SDS011;74950;56.832;41.398;2024-01-11T07:12:23;8.73;;;4.43;;
84729;SDS011;74950;56.832;41.398;2024-01-11T07:14:49;9.98;;;4.75;;
84729;SDS011;74950;56.832;41.398;2024-01-11T07:17:15;9.07;;;4.93;;
84729;SDS011;74950;56.832;41.398;2024-01-11T07:19:42;9.38;;;4.35;;
84729;SDS011;74950;56.832;41.398;2024-01-11T07:22:09;8.80;;;3.97;;
84729;SDS011;74950;56.832;41.398;2024-01-11T07:24:36;8.65;;;4.55;;
84729;SDS011;74950;56.832;41.398;2024-01-11T07:27:06;11.15;;;4.85;;
84729;SDS011;74950;56.832;41.398;2024-01-11T07:29:33;7.47;;;4.53;;
84729;SDS011;74950;56.832;41.398;2024-01-11T07:31:59;10.05;;;5.00;;
84729;SDS011;74950;56.832;41.398;2024-01-11T07:34:26;11.35;;;3.90;;
84729;SDS011;74950;56.832;41.398;2024-01-11T07:36:52;10.07;;;4.60;;
84729;SDS011;74950;56.832;41.398;2024-01-11T07:39:19;8.57;;;5.45;;
84729;SDS011;74950;56.832;41.398;2024-01-11T07:41:45;10.00;;;4.60;;
84729;SDS011;74950;56.832;41.398;2024-01-11T07:44:30;9.00;;;4.57;;
84729;SDS011;74950;56.832;41.398;2024-01-11T07:46:56;11.13;;;4.85;;
84729;SDS011;74950;56.832;41.398;2024-01-11T07:49:23;20.17;;;7.30;;
84729;SDS011;74950;56.832;41.398;2024-01-11T07:51:49;18.33;;;7.55;;
84729;SDS011;74950;56.832;41.398;2024-01-11T07:54:15;14.77;;;6.15;;
84729;SDS011;74950;56.832;41.398;2024-01-11T07:56:41;10.95;;;5.78;;
84729;SDS011;74950;56.832;41.398;2024-01-11T07:59:07;14.93;;;6.63;;
84729;SDS011;74950;56.832;41.398;2024-01-11T08:01:37;4.68;;;2.83;;
84729;SDS011;74950;56.832;41.398;2024-01-11T08:04:03;9.80;;;5.13;;
84729;SDS011;74950;56.832;41.398;2024-01-11T08:06:29;9.20;;;5.32;;
84729;SDS011;74950;56.832;41.398;2024-01-11T08:08:56;7.47;;;3.50;;
84729;SDS011;74950;56.832;41.398;2024-01-11T08:11:22;12.02;;;5.40;;
84729;SDS011;74950;56.832;41.398;2024-01-11T08:13:48;4.95;;;3.00;;
84729;SDS011;74950;56.832;41.398;2024-01-11T08:16:15;9.43;;;4.78;;
84729;SDS011;74950;56.832;41.398;2024-01-11T08:18:42;12.35;;;6.07;;
84729;SDS011;74950;56.832;41.398;2024-01-11T08:21:09;12.68;;;5.28;;
84729;SDS011;74950;56.832;41.398;2024-01-11T08:23:42;13.23;;;7.28;;
84729;SDS011;74950;56.832;41.398;2024-01-11T08:26:14;10.27;;;3.88;;
84729;SDS011;74950;56.832;41.398;2024-01-11T08:28:41;9.63;;;4.88;;
84729;SDS011;74950;56.832;41.398;2024-01-11T08:31:07;7.78;;;4.03;;
84729;SDS011;74950;56.832;41.398;2024-01-11T08:33:34;3.85;;;2.47;;
84729;SDS011;74950;56.832;41.398;2024-01-11T08:36:03;6.15;;;2.83;;
84729;SDS011;74950;56.832;41.398;2024-01-11T08:38:30;2.67;;;2.00;;
84729;SDS011;74950;56.832;41.398;2024-01-11T08:40:56;3.13;;;2.13;;
84729;SDS011;74950;56.832;41.398;2024-01-11T08:43:22;2.65;;;1.58;;
84729;SDS011;74950;56.832;41.398;2024-01-11T08:46:07;6.30;;;1.65;;
84729;SDS011;74950;56.832;41.398;2024-01-11T08:48:33;3.92;;;2.28;;
84729;SDS011;74950;56.832;41.398;2024-01-11T08:50:59;4.25;;;2.35;;
84729;SDS011;74950;56.832;41.398;2024-01-11T08:53:25;2.22;;;1.27;;
84729;SDS011;74950;56.832;41.398;2024-01-11T08:55:54;3.03;;;1.75;;
84729;SDS011;74950;56.832;41.398;2024-01-11T08:58:20;3.90;;;2.20;;
84729;SDS011;74950;56.832;41.398;2024-01-11T09:00:47;2.60;;;1.35;;
84729;SDS011;74950;56.832;41.398;2024-01-11T09:03:13;2.90;;;1.95;;
84729;SDS011;74950;56.832;41.398;2024-01-11T09:05:41;3.95;;;2.17;;
84729;SDS011;74950;56.832;41.398;2024-01-11T09:08:07;2.53;;;1.40;;
84729;SDS011;74950;56.832;41.398;2024-01-11T09:10:33;2.83;;;1.17;;
84729;SDS011;74950;56.832;41.398;2024-01-11T09:13:00;3.22;;;1.73;;
84729;SDS011;74950;56.832;41.398;2024-01-11T09:15:26;3.08;;;2.08;;
84729;SDS011;74950;56.832;41.398;2024-01-11T09:17:52;3.28;;;1.77;;
84729;SDS011;74950;56.832;41.398;2024-01-11T09:20:19;3.72;;;1.73;;
84729;SDS011;74950;56.832;41.398;2024-01-11T09:22:45;3.47;;;2.22;;
84729;SDS011;74950;56.832;41.398;2024-01-11T09:25:11;2.78;;;1.85;;
84729;SDS011;74950;56.832;41.398;2024-01-11T09:27:38;1.92;;;1.17;;
84729;SDS011;74950;56.832;41.398;2024-01-11T09:30:04;1.65;;;1.48;;
84729;SDS011;74950;56.832;41.398;2024-01-11T09:32:31;0.93;;;0.77;;
84729;SDS011;74950;56.832;41.398;2024-01-11T09:34:57;1.33;;;0.98;;
84729;SDS011;74950;56.832;41.398;2024-01-11T09:37:23;5.10;;;1.92;;
84729;SDS011;74950;56.832;41.398;2024-01-11T09:39:49;3.50;;;1.75;;
84729;SDS011;74950;56.832;41.398;2024-01-11T09:42:35;3.55;;;1.35;;
84729;SDS011;74950;56.832;41.398;2024-01-11T09:45:01;3.00;;;1.40;;
84729;SDS011;74950;56.832;41.398;2024-01-11T09:47:29;4.07;;;2.05;;
84729;SDS011;74950;56.832;41.398;2024-01-11T09:49:56;2.20;;;1.40;;
84729;SDS011;74950;56.832;41.398;2024-01-11T09:52:23;3.53;;;1.85;;
84729;SDS011;74950;56.832;41.398;2024-01-11T09:54:51;4.32;;;2.13;;
84729;SDS011;74950;56.832;41.398;2024-01-11T09:57:20;7.55;;;1.60;;
84729;SDS011;74950;56.832;41.398;2024-01-11T09:59:51;1.63;;;1.17;;
84729;SDS011;74950;56.832;41.398;2024-01-11T10:02:21;2.65;;;1.60;;
84729;SDS011;74950;56.832;41.398;2024-01-11T10:05:11;2.50;;;1.55;;
84729;SDS011;74950;56.832;41.398;2024-01-11T10:07:39;2.13;;;1.23;;
84729;SDS011;74950;56.832;41.398;2024-01-11T10:10:06;2.03;;;1.20;;
84729;SDS011;74950;56.832;41.398;2024-01-11T10:13:12;3.30;;;1.67;;
84729;SDS011;74950;56.832;41.398;2024-01-11T10:15:39;1.55;;;1.02;;
84729;SDS011;74950;56.832;41.398;2024-01-11T10:18:05;4.30;;;1.75;;
84729;SDS011;74950;56.832;41.398;2024-01-11T10:20:32;1.20;;;0.90;;
84729;SDS011;74950;56.832;41.398;2024-01-11T10:22:58;2.53;;;1.33;;
84729;SDS011;74950;56.832;41.398;2024-01-11T10:25:25;1.13;;;1.02;;
84729;SDS011;74950;56.832;41.398;2024-01-11T10:27:51;4.30;;;1.10;;
84729;SDS011;74950;56.832;41.398;2024-01-11T10:30:17;1.55;;;0.88;;
84729;SDS011;74950;56.832;41.398;2024-01-11T10:32:45;1.38;;;0.98;;
84729;SDS011;74950;56.832;41.398;2024-01-11T10:35:12;1.10;;;0.63;;
84729;SDS011;74950;56.832;41.398;2024-01-11T10:37:38;2.97;;;1.50;;
84729;SDS011;74950;56.832;41.398;2024-01-11T10:40:06;2.65;;;1.40;;
84729;SDS011;74950;56.832;41.398;2024-01-11T10:42:45;1.25;;;1.10;;
84729;SDS011;74950;56.832;41.398;2024-01-11T10:45:15;1.70;;;1.08;;
84729;SDS011;74950;56.832;41.398;2024-01-11T10:48:13;3.67;;;1.42;;
84729;SDS011;74950;56.832;41.398;2024-01-11T10:53:02;1.90;;;1.23;;
84729;SDS011;74950;56.832;41.398;2024-01-11T10:55:48;1.50;;;0.95;;
84729;SDS011;74950;56.832;41.398;2024-01-11T10:58:16;2.67;;;1.88;;
84729;SDS011;74950;56.832;41.398;2024-01-11T11:00:42;3.42;;;1.63;;
84729;SDS011;74950;56.832;41.398;2024-01-11T11:03:09;1.00;;;0.80;;
84729;SDS011;74950;56.832;41.398;2024-01-11T11:05:36;3.33;;;0.90;;
84729;SDS011;74950;56.832;41.398;2024-01-11T11:08:06;1.70;;;0.73;;
84729;SDS011;74950;56.832;41.398;2024-01-11T11:10:33;1.77;;;1.55;;
84729;SDS011;74950;56.832;41.398;2024-01-11T11:13:00;7.28;;;1.83;;
84729;SDS011;74950;56.832;41.398;2024-01-11T11:15:32;4.03;;;1.80;;
84729;SDS011;74950;56.832;41.398;2024-01-11T11:17:59;1.75;;;1.08;;
84729;SDS011;74950;56.832;41.398;2024-01-11T11:20:26;1.92;;;1.48;;
84729;SDS011;74950;56.832;41.398;2024-01-11T11:23:14;4.28;;;2.38;;
84729;SDS011;74950;56.832;41.398;2024-01-11T11:25:45;2.35;;;1.20;;
84729;SDS011;74950;56.832;41.398;2024-01-11T11:28:12;2.42;;;0.98;;
84729;SDS011;74950;56.832;41.398;2024-01-11T11:30:43;2.03;;;1.67;;
84729;SDS011;74950;56.832;41.398;2024-01-11T11:33:10;3.15;;;1.67;;
84729;SDS011;74950;56.832;41.398;2024-01-11T11:35:42;2.72;;;1.88;;
84729;SDS011;74950;56.832;41.398;2024-01-11T11:38:16;4.50;;;1.50;;
84729;SDS011;74950;56.832;41.398;2024-01-11T11:40:44;2.22;;;1.23;;
84729;SDS011;74950;56.832;41.398;2024-01-11T11:43:12;1.95;;;0.82;;
84729;SDS011;74950;56.832;41.398;2024-01-11T11:45:39;1.00;;;0.90;;
84729;SDS011;74950;56.832;41.398;2024-01-11T11:51:08;1.88;;;1.13;;
84729;SDS011;74950;56.832;41.398;2024-01-11T11:53:36;1.75;;;0.55;;
84729;SDS011;74950;56.832;41.398;2024-01-11T11:56:03;1.95;;;0.85;;
84729;SDS011;74950;56.832;41.398;2024-01-11T11:58:48;2.95;;;1.00;;
84729;SDS011;74950;56.832;41.398;2024-01-11T12:01:15;3.33;;;0.93;;
84729;SDS011;74950;56.832;41.398;2024-01-11T12:03:46;1.77;;;0.75;;
84729;SDS011;74950;56.832;41.398;2024-01-11T12:06:16;2.13;;;1.10;;
84729;SDS011;74950;56.832;41.398;2024-01-11T12:08:43;1.27;;;0.63;;
84729;SDS011;74950;56.832;41.398;2024-01-11T12:11:17;0.75;;;0.60;;
84729;SDS011;74950;56.832;41.398;2024-01-11T12:13:46;2.17;;;1.10;;
84729;SDS011;74950;56.832;41.398;2024-01-11T12:16:15;1.15;;;0.63;;
84729;SDS011;74950;56.832;41.398;2024-01-11T12:18:41;0.90;;;0.77;;
84729;SDS011;74950;56.832;41.398;2024-01-11T12:21:08;2.30;;;0.68;;
84729;SDS011;74950;56.832;41.398;2024-01-11T12:23:34;1.10;;;0.98;;
84729;SDS011;74950;56.832;41.398;2024-01-11T12:26:02;1.23;;;0.60;;
84729;SDS011;74950;56.832;41.398;2024-01-11T12:28:31;2.10;;;1.20;;
84729;SDS011;74950;56.832;41.398;2024-01-11T12:30:58;1.25;;;0.88;;
84729;SDS011;74950;56.832;41.398;2024-01-11T12:33:24;1.48;;;0.95;;
84729;SDS011;74950;56.832;41.398;2024-01-11T12:35:51;1.13;;;0.77;;
84729;SDS011;74950;56.832;41.398;2024-01-11T12:38:17;1.13;;;1.02;;
84729;SDS011;74950;56.832;41.398;2024-01-11T12:40:43;0.55;;;0.20;;
84729;SDS011;74950;56.832;41.398;2024-01-11T12:43:11;1.65;;;0.63;;
84729;SDS011;74950;56.832;41.398;2024-01-11T12:45:38;1.95;;;0.73;;
84729;SDS011;74950;56.832;41.398;2024-01-11T12:48:08;2.42;;;1.05;;
84729;SDS011;74950;56.832;41.398;2024-01-11T12:50:35;0.80;;;0.70;;
84729;SDS011;74950;56.832;41.398;2024-01-11T12:53:07;12.98;;;1.33;;
84729;SDS011;74950;56.832;41.398;2024-01-11T12:55:44;1.95;;;0.60;;
84729;SDS011;74950;56.832;41.398;2024-01-11T12:58:10;1.98;;;0.90;;
84729;SDS011;74950;56.832;41.398;2024-01-11T13:00:37;2.38;;;1.05;;
84729;SDS011;74950;56.832;41.398;2024-01-11T13:03:04;1.67;;;0.65;;
84729;SDS011;74950;56.832;41.398;2024-01-11T13:05:31;2.15;;;1.05;;
84729;SDS011;74950;56.832;41.398;2024-01-11T13:08:01;2.35;;;0.95;;
84729;SDS011;74950;56.832;41.398;2024-01-11T13:10:29;1.55;;;0.85;;
84729;SDS011;74950;56.832;41.398;2024-01-11T13:12:56;0.68;;;0.40;;
84729;SDS011;74950;56.832;41.398;2024-01-11T13:15:42;1.60;;;0.35;;
84729;SDS011;74950;56.832;41.398;2024-01-11T13:18:08;0.55;;;0.30;;
84729;SDS011;74950;56.832;41.398;2024-01-11T13:20:34;1.75;;;0.43;;
84729;SDS011;74950;56.832;41.398;2024-01-11T13:23:11;1.75;;;0.88;;
84729;SDS011;74950;56.832;41.398;2024-01-11T13:25:43;4.10;;;1.05;;
84729;SDS011;74950;56.832;41.398;2024-01-11T13:28:09;0.70;;;0.52;;
84729;SDS011;74950;56.832;41.398;2024-01-11T13:30:57;1.30;;;1.23;;
84729;SDS011;74950;56.832;41.398;2024-01-11T13:33:24;3.85;;;0.90;;
84729;SDS011;74950;56.832;41.398;2024-01-11T13:35:50;0.52;;;0.43;;
84729;SDS011;74950;56.832;41.398;2024-01-11T13:38:16;2.92;;;1.20;;
84729;SDS011;74950;56.832;41.398;2024-01-11T13:40:42;2.53;;;0.70;;
84729;SDS011;74950;56.832;41.398;2024-01-11T13:43:09;0.50;;;0.50;;
84729;SDS011;74950;56.832;41.398;2024-01-11T13:45:35;5.00;;;0.70;;
84729;SDS011;74950;56.832;41.398;2024-01-11T13:48:02;0.22;;;0.20;;
84729;SDS011;74950;56.832;41.398;2024-01-11T13:50:29;2.28;;;0.73;;
84729;SDS011;74950;56.832;41.398;2024-01-11T13:52:55;1.92;;;0.75;;
84729;SDS011;74950;56.832;41.398;2024-01-11T13:55:22;2.00;;;1.10;;
84729;SDS011;74950;56.832;41.398;2024-01-11T13:57:52;1.60;;;1.02;;
84729;SDS011;74950;56.832;41.398;2024-01-11T14:00:19;2.25;;;0.93;;
84729;SDS011;74950;56.832;41.398;2024-01-11T14:02:46;3.30;;;1.00;;
84729;SDS011;74950;56.832;41.398;2024-01-11T14:05:12;2.80;;;1.50;;
84729;SDS011;74950;56.832;41.398;2024-01-11T14:07:41;1.90;;;1.00;;
84729;SDS011;74950;56.832;41.398;2024-01-11T14:10:07;2.75;;;1.23;;
84729;SDS011;74950;56.832;41.398;2024-01-11T14:12:35;2.55;;;0.85;;
84729;SDS011;74950;56.832;41.398;2024-01-11T14:15:03;1.00;;;0.68;;
84729;SDS011;74950;56.832;41.398;2024-01-11T14:17:30;2.22;;;1.02;;
84729;SDS011;74950;56.832;41.398;2024-01-11T14:19:56;3.25;;;1.00;;
84729;SDS011;74950;56.832;41.398;2024-01-11T14:22:22;1.13;;;0.63;;
84729;SDS011;74950;56.832;41.398;2024-01-11T14:24:49;0.38;;;0.30;;
84729;SDS011;74950;56.832;41.398;2024-01-11T14:27:16;1.38;;;0.75;;
84729;SDS011;74950;56.832;41.398;2024-01-11T14:29:42;1.35;;;0.77;;
84729;SDS011;74950;56.832;41.398;2024-01-11T14:32:08;1.70;;;0.93;;
84729;SDS011;74950;56.832;41.398;2024-01-11T14:34:36;0.38;;;0.32;;
84729;SDS011;74950;56.832;41.398;2024-01-11T14:37:03;0.30;;;0.30;;
84729;SDS011;74950;56.832;41.398;2024-01-11T14:39:29;0.75;;;0.70;;
84729;SDS011;74950;56.832;41.398;2024-01-11T14:41:55;0.75;;;0.47;;
84729;SDS011;74950;56.832;41.398;2024-01-11T14:44:21;3.60;;;1.13;;